Time;durP1;ratioP1;P1;durP2;ratioP2;P2;SDS_P1;SDS_P2;PMS_P1;PMS_P2;Temp;Humidity;BMP_temperature;BMP_pressure;BME280_temperature;BME280_humidity;BME280_pressure;Samples;Min_cycle;Max_cycle;Signal;HPM_P1;HPM_P2
2022/01/02 00:01:46;;;;;;;4.53;2.58;;;12.20;99.90;;;;;;4955992;29;19965;-89
2022/01/02 00:04:19;;;;;;;6.30;2.23;;;12.20;99.90;;;;;;4956416;28;20402;-89
2022/01/02 00:06:50;;;;;;;5.53;2.30;;;12.20;99.90;;;;;;4940409;29;20039;-89
2022/01/02 00:09:36;;;;;;;4.60;2.40;;;12.20;99.90;;;;;;4955912;29;20039;-89
2022/01/02 00:12:08;;;;;;;4.63;2.50;;;12.20;99.90;;;;;;4956129;29;20031;-89
2022/01/02 00:14:36;;;;;;;4.85;2.67;;;12.20;99.90;;;;;;4956267;29;20027;-89
2022/01/02 00:17:04;;;;;;;5.97;2.97;;;12.20;99.90;;;;;;4956243;29;20031;-89
2022/01/02 00:19:31;;;;;;;4.72;2.50;;;12.20;99.90;;;;;;4955657;29;20054;-90
2022/01/02 00:22:01;;;;;;;4.45;2.42;;;12.20;99.90;;;;;;4955826;29;20046;-90
2022/01/02 00:24:28;;;;;;;4.80;2.03;;;12.20;99.90;;;;;;4956069;29;20038;-89
2022/01/02 00:26:55;;;;;;;5.13;2.65;;;12.20;99.90;;;;;;4956018;29;20046;-90
2022/01/02 00:29:22;;;;;;;4.57;2.88;;;12.20;99.90;;;;;;4955527;29;20086;-89
2022/01/02 00:31:49;;;;;;;5.43;2.63;;;12.10;99.90;;;;;;4955794;29;20128;-89
2022/01/02 00:34:15;;;;;;;5.55;2.40;;;12.20;99.90;;;;;;4955972;29;20035;-90
2022/01/02 00:36:41;;;;;;;4.78;2.42;;;12.20;99.90;;;;;;4955830;29;20042;-89
2022/01/02 00:39:07;;;;;;;6.17;2.40;;;12.10;99.90;;;;;;4955283;29;20031;-89
2022/01/02 00:41:39;;;;;;;5.03;2.30;;;12.20;99.90;;;;;;4955563;29;20074;-89
2022/01/02 00:44:32;;;;;;;4.53;2.43;;;12.10;99.90;;;;;;4939776;29;20027;-89
2022/01/02 00:47:07;;;;;;;5.80;2.63;;;12.20;99.90;;;;;;4939771;29;20049;-89
2022/01/02 00:49:39;;;;;;;5.57;2.70;;;12.20;99.90;;;;;;4939250;29;20035;-89
2022/01/02 00:52:12;;;;;;;5.50;2.63;;;12.10;99.90;;;;;;4939455;29;20031;-89
2022/01/02 00:54:43;;;;;;;3.92;2.58;;;12.10;99.90;;;;;;4955635;29;20042;-90
2022/01/02 00:57:16;;;;;;;4.47;2.58;;;12.10;99.90;;;;;;4955619;28;20031;-90
2022/01/02 00:59:56;;;;;;;5.72;2.58;;;12.20;99.90;;;;;;4955324;29;20031;-90
2022/01/02 01:02:32;;;;;;;5.60;2.50;;;12.20;99.90;;;;;;4939494;29;20035;-89
2022/01/02 01:05:00;;;;;;;3.73;2.13;;;12.20;99.90;;;;;;4955248;28;20516;-89
2022/01/02 01:07:25;;;;;;;4.70;2.17;;;12.20;99.90;;;;;;4955165;29;20074;-89
2022/01/02 01:09:55;;;;;;;5.63;2.80;;;12.20;99.90;;;;;;4955574;29;20031;-89
2022/01/02 01:12:20;;;;;;;5.35;2.45;;;12.20;99.90;;;;;;4957615;29;20061;-89
2022/01/02 01:14:47;;;;;;;5.80;2.45;;;12.20;99.90;;;;;;4957638;29;20126;-89
2022/01/02 01:17:15;;;;;;;6.30;2.67;;;12.20;99.90;;;;;;4941509;29;20027;-89
2022/01/02 01:19:41;;;;;;;6.78;3.00;;;12.20;99.90;;;;;;4956882;29;20042;-89
2022/01/02 01:22:08;;;;;;;10.07;3.00;;;12.20;99.90;;;;;;4954807;29;20036;-89
2022/01/02 01:24:35;;;;;;;5.20;2.60;;;12.20;99.90;;;;;;4954940;29;20073;-89
2022/01/02 01:27:04;;;;;;;4.70;2.78;;;12.20;99.90;;;;;;4954824;29;20050;-90
2022/01/02 01:29:34;;;;;;;3.47;2.40;;;12.20;99.90;;;;;;4954447;28;20062;-89
2022/01/02 01:32:04;;;;;;;5.30;2.80;;;12.20;99.90;;;;;;4938665;29;20055;-89
2022/01/02 01:34:33;;;;;;;4.80;2.97;;;12.30;99.90;;;;;;4954750;29;20034;-89
2022/01/02 01:36:59;;;;;;;5.13;2.88;;;12.20;99.90;;;;;;4954797;29;20139;-89
2022/01/02 01:39:25;;;;;;;5.97;2.70;;;12.20;99.90;;;;;;4954158;29;20046;-89
2022/01/02 01:41:54;;;;;;;5.53;2.72;;;12.30;99.90;;;;;;4938938;29;20027;-89
2022/01/02 01:46:51;;;;;;;5.57;2.67;;;12.30;99.90;;;;;;4954729;29;20058;-89
2022/01/02 01:49:26;;;;;;;6.72;2.60;;;12.30;99.90;;;;;;4954057;28;20122;-88
2022/01/02 01:51:53;;;;;;;5.78;2.75;;;12.30;99.90;;;;;;4954168;29;20031;-90
2022/01/02 01:54:22;;;;;;;3.97;2.50;;;12.30;99.90;;;;;;4954039;29;20114;-88
2022/01/02 01:56:52;;;;;;;4.82;2.60;;;12.30;99.90;;;;;;4954464;29;20365;-89
2022/01/02 01:59:23;;;;;;;6.03;2.70;;;12.30;99.90;;;;;;4953815;29;20035;-90
2022/01/02 02:01:51;;;;;;;5.15;2.47;;;12.30;99.90;;;;;;4954095;29;20039;-89
2022/01/02 02:04:17;;;;;;;5.28;2.63;;;12.30;99.90;;;;;;4922570;29;20517;-89
2022/01/02 02:06:44;;;;;;;6.93;3.08;;;12.30;99.90;;;;;;4938485;29;20442;-89
2022/01/02 02:09:11;;;;;;;4.78;2.65;;;12.30;99.90;;;;;;4953689;28;20126;-89
2022/01/02 02:11:39;;;;;;;5.00;3.00;;;12.30;99.90;;;;;;4953893;28;20387;-90
2022/01/02 02:14:07;;;;;;;5.75;2.50;;;12.30;99.90;;;;;;4954005;29;20081;-89
2022/01/02 02:16:36;;;;;;;7.47;3.03;;;12.30;99.90;;;;;;4953122;28;20023;-90
2022/01/02 02:19:04;;;;;;;4.90;2.58;;;12.30;99.90;;;;;;4953398;29;20034;-90
2022/01/02 02:32:39;;;;;;;4.60;2.72;;;12.30;99.90;;;;;;4953551;28;20094;-91
2022/01/02 02:35:06;;;;;;;7.35;2.60;;;12.30;99.90;;;;;;4937847;29;20051;-91
2022/01/02 02:37:32;;;;;;;6.00;2.90;;;12.30;99.90;;;;;;4937519;29;20058;-91
2022/01/02 02:39:58;;;;;;;6.90;2.80;;;12.30;99.90;;;;;;4937628;29;20486;-92
2022/01/02 02:42:34;;;;;;;6.78;2.97;;;12.30;99.90;;;;;;4937703;29;20063;-91
2022/01/02 02:50:46;;;;;;;8.02;3.03;;;12.20;99.90;;;;;;4953587;29;20031;-91
2022/01/02 02:53:14;;;;;;;6.85;2.92;;;12.30;99.90;;;;;;4937518;29;20034;-91
2022/01/02 02:55:45;;;;;;;6.93;3.08;;;12.30;99.90;;;;;;4937597;29;20390;-91
2022/01/02 02:58:39;;;;;;;6.65;3.10;;;12.30;99.90;;;;;;4937113;29;20027;-91
2022/01/02 03:01:05;;;;;;;5.90;2.63;;;12.30;99.90;;;;;;4937419;28;20035;-91
2022/01/02 03:03:32;;;;;;;5.63;2.75;;;12.20;99.90;;;;;;4937470;29;20454;-91
2022/01/02 03:05:58;;;;;;;5.03;2.92;;;12.20;99.90;;;;;;4937410;29;20082;-91
2022/01/02 03:08:24;;;;;;;5.97;2.65;;;12.30;99.90;;;;;;4936774;29;20032;-91
2022/01/02 03:10:50;;;;;;;7.18;3.10;;;12.20;99.90;;;;;;4953061;29;20038;-91
2022/01/02 03:13:16;;;;;;;7.20;2.65;;;12.20;99.90;;;;;;4937077;29;20031;-92
2022/01/02 03:15:42;;;;;;;6.25;2.85;;;12.20;99.90;;;;;;4937311;29;20051;-91
2022/01/02 03:18:08;;;;;;;7.22;3.08;;;12.20;99.90;;;;;;4936947;29;20139;-91
2022/01/02 03:20:34;;;;;;;6.47;3.00;;;12.20;99.90;;;;;;4936862;29;20109;-91
2022/01/02 03:23:00;;;;;;;4.82;2.80;;;12.20;99.90;;;;;;4937099;29;20059;-91
2022/01/02 03:25:25;;;;;;;7.40;3.20;;;12.20;99.90;;;;;;4937232;29;20027;-91
2022/01/02 03:27:51;;;;;;;5.93;2.85;;;12.10;99.90;;;;;;4936108;29;20031;-91
2022/01/02 03:30:17;;;;;;;6.50;3.00;;;12.20;99.90;;;;;;4937016;29;20656;-90
2022/01/02 03:32:43;;;;;;;5.28;2.80;;;12.10;99.90;;;;;;4936961;29;20031;-91
2022/01/02 03:35:09;;;;;;;5.75;3.05;;;12.10;99.90;;;;;;4936991;29;20439;-91
2022/01/02 03:37:35;;;;;;;5.75;3.00;;;12.10;99.90;;;;;;4936605;29;20027;-91
2022/01/02 03:40:05;;;;;;;6.60;2.80;;;12.10;99.90;;;;;;4936960;29;20050;-91
2022/01/02 03:42:31;;;;;;;7.70;3.05;;;12.10;99.90;;;;;;4936724;29;20038;-91
2022/01/02 03:44:58;;;;;;;6.15;3.10;;;12.10;99.90;;;;;;4937150;29;20511;-91
2022/01/02 03:47:25;;;;;;;6.28;3.00;;;12.10;99.90;;;;;;4921007;29;20035;-91
2022/01/02 03:49:51;;;;;;;6.47;3.22;;;12.10;99.90;;;;;;4936479;29;20030;-91
2022/01/02 03:52:17;;;;;;;7.07;3.40;;;12.00;99.90;;;;;;4936679;29;20028;-90
2022/01/02 03:54:43;;;;;;;9.60;3.47;;;12.00;99.90;;;;;;4921025;29;20106;-91
2022/01/02 03:57:09;;;;;;;5.95;2.85;;;12.00;99.90;;;;;;4937318;29;20086;-91
2022/01/02 03:59:35;;;;;;;5.33;2.73;;;12.00;99.90;;;;;;4936491;29;20553;-91
2022/01/02 04:02:01;;;;;;;6.47;2.97;;;12.10;99.90;;;;;;4936950;29;20083;-91
2022/01/02 04:04:28;;;;;;;8.23;3.28;;;12.00;99.90;;;;;;4936585;29;20059;-91
2022/01/02 04:06:54;;;;;;;4.82;2.97;;;12.00;99.90;;;;;;4936833;29;20035;-91
2022/01/02 04:09:21;;;;;;;5.07;2.90;;;12.00;99.90;;;;;;4920467;29;20027;-91
2022/01/02 04:11:47;;;;;;;9.13;3.20;;;12.00;99.90;;;;;;4936893;29;20031;-90
2022/01/02 04:14:13;;;;;;;8.73;3.40;;;12.00;99.90;;;;;;4936956;29;20086;-91
2022/01/02 04:16:39;;;;;;;7.53;3.27;;;11.90;99.90;;;;;;4936653;29;20049;-91
2022/01/02 04:19:07;;;;;;;6.63;3.37;;;12.00;99.90;;;;;;4936920;29;20065;-91
2022/01/02 04:21:33;;;;;;;6.05;3.38;;;12.00;99.90;;;;;;4936786;29;20055;-91
2022/01/02 04:23:59;;;;;;;6.50;3.10;;;12.00;99.90;;;;;;4936899;29;20080;-92
2022/01/02 04:26:26;;;;;;;5.90;3.30;;;11.90;99.90;;;;;;4937120;29;20043;-91
2022/01/02 04:28:52;;;;;;;6.78;3.40;;;11.90;99.90;;;;;;4937290;29;20465;-91
2022/01/02 04:31:18;;;;;;;9.90;3.60;;;12.00;99.90;;;;;;4936810;29;20035;-91
2022/01/02 04:33:44;;;;;;;5.53;3.20;;;11.90;99.90;;;;;;4952646;28;20038;-91
2022/01/02 04:36:10;;;;;;;7.13;3.40;;;11.90;99.90;;;;;;4937134;29;20394;-91
2022/01/02 04:38:37;;;;;;;7.30;3.55;;;11.80;99.90;;;;;;4936908;29;20027;-91
2022/01/02 04:41:04;;;;;;;7.13;4.07;;;11.80;99.90;;;;;;4939613;28;20035;-91
2022/01/02 04:43:30;;;;;;;6.05;3.22;;;11.90;99.90;;;;;;4940354;29;20502;-92
2022/01/02 04:45:56;;;;;;;9.00;3.80;;;11.80;99.90;;;;;;4939994;29;20039;-90
2022/01/02 04:48:23;;;;;;;7.70;3.67;;;11.90;99.90;;;;;;4939768;29;20031;-91
2022/01/02 04:50:49;;;;;;;8.50;3.92;;;11.80;99.90;;;;;;4940069;29;20028;-91
2022/01/02 04:53:16;;;;;;;7.60;3.80;;;11.80;99.90;;;;;;4924059;29;20027;-90
2022/01/02 04:55:42;;;;;;;7.10;3.90;;;11.80;99.90;;;;;;4939588;29;20058;-91
2022/01/02 04:58:09;;;;;;;8.23;4.03;;;11.80;99.90;;;;;;4939744;29;20038;-91
2022/01/02 05:00:36;;;;;;;7.50;3.70;;;11.80;99.90;;;;;;4940091;29;20035;-91
2022/01/02 05:03:02;;;;;;;8.07;4.03;;;11.70;99.90;;;;;;4939861;29;20031;-91
2022/01/02 05:05:28;;;;;;;8.23;3.80;;;11.80;99.90;;;;;;4939580;29;20118;-90
2022/01/02 05:07:55;;;;;;;9.93;4.37;;;11.80;99.90;;;;;;4939318;29;20061;-91
2022/01/02 05:10:21;;;;;;;7.37;3.67;;;11.80;99.90;;;;;;4939318;29;20379;-90
2022/01/02 05:12:47;;;;;;;8.90;3.80;;;11.80;99.90;;;;;;4939514;29;20493;-90
2022/01/02 05:15:15;;;;;;;8.35;3.97;;;11.80;99.90;;;;;;4939662;29;20027;-90
2022/01/02 05:17:43;;;;;;;9.13;4.13;;;11.80;99.90;;;;;;4939300;29;20031;-91
2022/01/02 05:20:10;;;;;;;8.43;3.50;;;11.70;99.90;;;;;;4939563;29;20035;-90
2022/01/02 05:22:36;;;;;;;8.37;3.83;;;11.70;99.90;;;;;;4923512;29;20126;-91
2022/01/02 05:25:03;;;;;;;9.40;3.90;;;11.70;99.90;;;;;;4939578;29;20081;-91
2022/01/02 05:27:29;;;;;;;12.50;6.93;;;11.80;99.90;;;;;;4939116;29;20042;-91
2022/01/02 05:29:55;;;;;;;11.43;6.60;;;11.80;99.90;;;;;;4939148;29;20031;-90
2022/01/02 05:32:21;;;;;;;9.60;5.03;;;11.80;99.90;;;;;;4939112;29;20035;-91
2022/01/02 05:34:48;;;;;;;8.63;4.17;;;11.70;99.90;;;;;;4955320;29;20027;-91
2022/01/02 05:37:13;;;;;;;9.90;4.00;;;11.70;99.90;;;;;;4939451;29;20517;-90
2022/01/02 05:39:39;;;;;;;6.20;3.67;;;11.70;99.90;;;;;;4939108;29;20062;-91
2022/01/02 05:42:06;;;;;;;7.37;3.70;;;11.70;99.90;;;;;;4938737;29;20035;-91
2022/01/02 05:44:32;;;;;;;7.47;3.87;;;11.70;99.90;;;;;;4923286;29;20035;-90
2022/01/02 05:46:58;;;;;;;8.63;4.03;;;11.70;99.90;;;;;;4938991;29;20446;-90
2022/01/02 05:49:24;;;;;;;8.93;4.10;;;11.70;99.90;;;;;;4938654;29;20036;-91
2022/01/02 05:51:51;;;;;;;6.83;3.70;;;11.70;99.90;;;;;;4938234;29;20075;-90
2022/01/02 05:54:16;;;;;;;7.80;3.97;;;11.70;99.90;;;;;;4938832;29;20039;-91
2022/01/02 05:56:44;;;;;;;10.53;4.00;;;11.70;99.90;;;;;;4938643;29;20041;-90
2022/01/02 05:59:10;;;;;;;8.60;3.90;;;11.70;99.90;;;;;;4938462;29;20031;-91
2022/01/02 06:01:37;;;;;;;7.80;3.97;;;11.70;99.90;;;;;;4938843;29;20035;-90
2022/01/02 06:04:03;;;;;;;8.43;4.07;;;11.70;99.90;;;;;;4938928;29;20062;-90
2022/01/02 06:06:29;;;;;;;11.15;4.55;;;11.70;99.90;;;;;;4938683;29;20139;-91
2022/01/02 06:08:58;;;;;;;9.43;4.07;;;11.70;99.90;;;;;;4938749;29;20038;-91
2022/01/02 06:11:24;;;;;;;9.23;4.25;;;11.70;99.90;;;;;;4922974;29;20174;-91
2022/01/02 06:13:50;;;;;;;7.67;4.03;;;11.70;99.90;;;;;;4938364;29;20106;-91
2022/01/02 06:16:17;;;;;;;8.03;4.00;;;11.70;99.90;;;;;;4922994;29;20027;-91
2022/01/02 06:18:43;;;;;;;7.07;3.43;;;11.70;99.90;;;;;;4938386;29;20034;-91
2022/01/02 06:21:09;;;;;;;6.80;3.73;;;11.70;99.90;;;;;;4938137;28;20027;-91
2022/01/02 06:23:35;;;;;;;10.10;3.97;;;11.60;99.90;;;;;;4938182;29;20122;-91
2022/01/02 06:26:01;;;;;;;9.87;3.93;;;11.70;99.90;;;;;;4938657;29;20153;-91
2022/01/02 06:28:28;;;;;;;11.53;3.97;;;11.70;99.90;;;;;;4938018;29;20523;-91
2022/01/02 06:30:54;;;;;;;10.13;4.77;;;11.70;99.90;;;;;;4937864;28;20090;-92
2022/01/02 06:33:20;;;;;;;7.53;4.10;;;11.70;99.90;;;;;;4937878;29;20055;-90
2022/01/02 06:35:46;;;;;;;7.20;3.90;;;11.70;99.90;;;;;;4938270;29;20478;-91
2022/01/02 06:38:19;;;;;;;6.90;3.43;;;11.70;99.90;;;;;;4922536;29;20038;-90
2022/01/02 06:40:49;;;;;;;6.87;4.20;;;11.70;99.90;;;;;;4938640;29;20038;-90
2022/01/02 06:43:17;;;;;;;9.93;4.10;;;11.70;99.90;;;;;;4938061;29;20119;-91
2022/01/02 06:45:44;;;;;;;7.33;4.13;;;11.70;99.90;;;;;;4937999;29;20058;-91
2022/01/02 06:48:10;;;;;;;9.30;4.13;;;11.70;99.90;;;;;;4937671;29;20037;-90
2022/01/02 06:50:35;;;;;;;12.47;5.17;;;11.70;99.90;;;;;;4937771;29;20117;-90
2022/01/02 06:53:01;;;;;;;12.13;5.03;;;11.70;99.90;;;;;;4938000;29;20035;-90
2022/01/02 06:55:27;;;;;;;8.97;4.13;;;11.70;99.90;;;;;;4937683;29;20065;-89
2022/01/02 06:57:53;;;;;;;10.03;4.00;;;11.70;99.90;;;;;;4937541;29;20101;-90
2022/01/02 07:00:19;;;;;;;9.37;4.07;;;11.70;99.90;;;;;;4937392;29;20031;-90
2022/01/02 07:02:46;;;;;;;9.17;4.00;;;11.70;99.90;;;;;;4937128;29;20031;-91
2022/01/02 07:05:12;;;;;;;7.10;4.00;;;11.70;99.90;;;;;;4937460;29;20034;-90
2022/01/02 07:07:41;;;;;;;10.80;4.17;;;11.70;99.90;;;;;;4937623;29;20035;-91
2022/01/02 07:10:09;;;;;;;7.05;3.65;;;11.70;99.90;;;;;;4937328;29;20031;-91
2022/01/02 07:12:36;;;;;;;10.60;4.10;;;11.70;99.90;;;;;;4937512;29;20117;-90
2022/01/02 07:15:02;;;;;;;10.30;4.20;;;11.80;99.90;;;;;;4937258;29;20030;-91
2022/01/02 07:17:28;;;;;;;15.23;8.77;;;11.80;99.90;;;;;;4921831;29;20027;-90
2022/01/02 07:19:54;;;;;;;10.47;5.50;;;11.80;99.90;;;;;;4937261;29;20027;-90
2022/01/02 07:22:20;;;;;;;12.50;6.53;;;11.80;99.90;;;;;;4937460;29;20446;-91
2022/01/02 07:24:50;;;;;;;10.27;4.83;;;11.80;99.90;;;;;;4937354;29;20549;-91
2022/01/02 07:27:16;;;;;;;11.20;5.03;;;11.80;99.90;;;;;;4937400;29;20046;-91
2022/01/02 07:29:42;;;;;;;11.73;5.10;;;11.80;99.90;;;;;;4936938;29;20046;-89
2022/01/02 07:32:08;;;;;;;7.83;3.93;;;11.80;99.90;;;;;;4937026;29;20039;-91
2022/01/02 07:34:34;;;;;;;7.97;3.87;;;11.70;99.90;;;;;;4937247;29;20439;-91
2022/01/02 07:36:59;;;;;;;9.43;4.80;;;11.80;99.90;;;;;;4937204;29;20471;-91
2022/01/02 07:39:25;;;;;;;10.63;4.60;;;11.70;99.90;;;;;;4954453;29;20035;-91
2022/01/02 07:41:51;;;;;;;7.37;3.73;;;11.80;99.90;;;;;;4936787;29;20035;-91
2022/01/02 07:44:24;;;;;;;8.80;4.43;;;11.80;99.90;;;;;;4937389;29;20126;-91
2022/01/02 07:46:50;;;;;;;11.00;5.53;;;11.80;99.90;;;;;;4952857;29;20122;-91
2022/01/02 07:49:15;;;;;;;10.37;4.83;;;11.80;99.90;;;;;;4936878;29;20034;-91
2022/01/02 07:51:41;;;;;;;10.90;4.00;;;11.80;99.90;;;;;;4936863;29;20028;-90
2022/01/02 07:54:07;;;;;;;8.00;3.93;;;11.80;99.90;;;;;;4936830;29;20023;-91
2022/01/02 07:56:33;;;;;;;8.77;4.03;;;11.80;99.90;;;;;;4936868;29;20296;-92
2022/01/02 07:58:59;;;;;;;7.50;3.90;;;11.80;99.90;;;;;;4937254;29;20117;-91
2022/01/02 08:01:26;;;;;;;9.50;4.33;;;11.80;99.90;;;;;;4952671;28;20059;-91
2022/01/02 08:03:52;;;;;;;9.10;3.67;;;11.80;99.90;;;;;;4936790;29;20119;-91
2022/01/02 08:06:18;;;;;;;7.00;3.53;;;11.80;99.90;;;;;;4952939;29;20058;-90
2022/01/02 08:08:45;;;;;;;7.90;3.73;;;11.90;99.90;;;;;;4936803;29;20533;-91
2022/01/02 08:11:11;;;;;;;7.80;3.40;;;11.90;99.90;;;;;;4937010;28;20389;-91
2022/01/02 08:13:37;;;;;;;6.10;3.60;;;11.90;99.90;;;;;;4937920;29;20253;-91
2022/01/02 08:16:03;;;;;;;10.40;5.30;;;11.90;99.90;;;;;;4940405;29;20031;-91
2022/01/02 08:18:29;;;;;;;8.67;4.20;;;11.90;99.90;;;;;;4940280;29;20030;-91
2022/01/02 08:20:57;;;;;;;7.43;3.47;;;11.90;99.90;;;;;;4940190;28;20035;-92
2022/01/02 08:23:23;;;;;;;7.87;3.47;;;11.90;99.90;;;;;;4940455;29;20493;-90
2022/01/02 08:25:49;;;;;;;7.80;3.43;;;12.00;99.90;;;;;;4940375;29;20031;-90
2022/01/02 08:28:15;;;;;;;8.50;4.63;;;12.00;99.90;;;;;;4940042;29;20035;-92
2022/01/02 08:30:43;;;;;;;7.07;3.83;;;12.00;99.90;;;;;;4940757;29;20038;-90
2022/01/02 08:33:10;;;;;;;8.00;3.83;;;12.00;99.90;;;;;;4955912;28;20036;-91
2022/01/02 08:35:37;;;;;;;6.77;3.17;;;12.00;99.90;;;;;;4940272;29;20042;-91
2022/01/02 08:38:03;;;;;;;7.93;3.63;;;12.10;99.90;;;;;;4957300;29;20042;-91
2022/01/02 08:40:29;;;;;;;7.40;3.87;;;12.00;99.90;;;;;;4939967;29;20027;-90
2022/01/02 08:42:55;;;;;;;6.90;3.00;;;12.10;99.90;;;;;;4940015;29;20099;-91
2022/01/02 08:45:21;;;;;;;12.50;7.10;;;12.10;99.90;;;;;;4939889;29;20541;-90
2022/01/02 08:47:47;;;;;;;11.97;7.33;;;12.10;99.90;;;;;;4955952;29;20087;-91
2022/01/02 08:50:13;;;;;;;11.50;6.50;;;12.10;99.90;;;;;;4939766;29;20032;-90
2022/01/02 08:52:39;;;;;;;8.43;4.23;;;12.10;99.90;;;;;;4939632;29;20031;-90
2022/01/02 08:55:05;;;;;;;6.18;3.70;;;12.10;99.90;;;;;;4940104;29;20034;-90
2022/01/02 08:57:31;;;;;;;5.43;3.07;;;12.10;99.90;;;;;;4956929;29;20027;-90
2022/01/02 08:59:57;;;;;;;5.23;2.50;;;12.10;99.90;;;;;;4939604;29;20054;-91
2022/01/02 09:02:22;;;;;;;6.55;2.80;;;12.20;99.90;;;;;;4940035;29;20086;-91
2022/01/02 09:04:48;;;;;;;5.72;2.80;;;12.20;99.90;;;;;;4956782;29;20023;-91
2022/01/02 09:07:14;;;;;;;4.85;2.50;;;12.20;99.90;;;;;;4939702;29;20031;-90
2022/01/02 09:09:40;;;;;;;7.83;2.80;;;12.20;99.90;;;;;;4939705;29;20482;-91
2022/01/02 09:12:07;;;;;;;4.68;2.80;;;12.20;99.90;;;;;;4956582;28;20023;-90
2022/01/02 09:14:33;;;;;;;5.43;2.70;;;12.20;99.90;;;;;;4939736;29;20466;-91
2022/01/02 09:16:59;;;;;;;4.85;2.90;;;12.20;99.90;;;;;;4955419;29;20090;-91
2022/01/02 09:19:25;;;;;;;6.73;2.47;;;12.30;99.90;;;;;;4939476;29;20035;-91
2022/01/02 09:21:52;;;;;;;5.72;2.70;;;12.30;99.90;;;;;;4939156;29;20453;-91
2022/01/02 09:24:18;;;;;;;4.70;2.47;;;12.30;99.90;;;;;;4939180;29;20035;-90
2022/01/02 09:26:44;;;;;;;6.30;2.53;;;12.30;99.90;;;;;;4938825;29;20130;-91
2022/01/02 09:29:10;;;;;;;5.60;2.90;;;12.30;99.90;;;;;;4956347;29;20125;-90
2022/01/02 09:31:36;;;;;;;5.37;2.40;;;12.40;99.90;;;;;;4939040;29;20483;-91
2022/01/02 09:34:02;;;;;;;4.97;2.83;;;12.50;99.90;;;;;;4939002;29;20042;-91
2022/01/02 09:36:28;;;;;;;10.00;3.60;;;12.40;99.90;;;;;;4939344;29;20105;-91
2022/01/02 09:38:57;;;;;;;5.60;2.67;;;12.30;99.90;;;;;;4955661;29;20442;-90
2022/01/02 09:41:23;;;;;;;6.07;2.97;;;12.30;99.90;;;;;;4940889;29;20039;-90
2022/01/02 09:43:48;;;;;;;7.82;3.15;;;12.30;99.90;;;;;;4939598;29;20031;-91
2022/01/02 09:46:21;;;;;;;6.38;3.47;;;12.20;99.90;;;;;;4954847;29;20035;-90
2022/01/02 09:48:48;;;;;;;5.32;2.80;;;12.30;99.90;;;;;;4938668;29;20117;-90
2022/01/02 09:51:16;;;;;;;5.03;2.78;;;12.20;99.90;;;;;;4938925;28;20035;-90
2022/01/02 09:53:45;;;;;;;5.68;3.17;;;12.30;99.90;;;;;;4939079;29;20051;-91
2022/01/02 09:56:11;;;;;;;6.60;3.63;;;12.30;99.90;;;;;;4938556;29;20492;-90
2022/01/02 09:58:38;;;;;;;4.97;2.88;;;12.30;99.90;;;;;;4938526;29;20129;-91
2022/01/02 10:01:06;;;;;;;6.20;3.20;;;12.30;99.90;;;;;;4954499;28;20035;-90
2022/01/02 10:03:44;;;;;;;6.53;2.75;;;12.30;99.90;;;;;;4938639;29;20035;-91
2022/01/02 10:06:10;;;;;;;5.35;2.72;;;12.30;99.90;;;;;;4938406;29;20486;-91
2022/01/02 10:08:36;;;;;;;6.10;2.60;;;12.30;99.90;;;;;;4938298;29;20034;-91
2022/01/02 10:11:03;;;;;;;5.00;3.00;;;12.30;99.90;;;;;;4938332;28;20028;-92
2022/01/02 10:13:43;;;;;;;5.68;2.70;;;12.30;99.90;;;;;;4954430;29;20027;-91
2022/01/02 10:16:38;;;;;;;;;;;12.30;99.90;;;;;;4955891;29;20039;-91
2022/01/02 10:19:18;;;;;;;6.82;2.63;;;12.40;99.90;;;;;;4929871;29;20461;-90
2022/01/02 10:21:51;;;;;;;4.88;2.35;;;12.40;99.90;;;;;;4938163;29;20038;-91
2022/01/02 10:24:21;;;;;;;5.40;2.60;;;12.50;99.90;;;;;;4954385;29;20045;-91
2022/01/02 10:27:15;;;;;;;6.22;3.40;;;12.50;99.90;;;;;;4938103;29;20051;-91
2022/01/02 10:29:43;;;;;;;8.25;4.32;;;12.50;99.90;;;;;;4934824;29;20035;-91
2022/01/02 10:32:30;;;;;;;7.15;3.33;;;12.50;99.90;;;;;;4938681;29;20134;-91
2022/01/02 10:35:17;;;;;;;4.88;2.63;;;12.60;99.90;;;;;;4938525;29;20038;-90
2022/01/02 10:37:52;;;;;;;6.95;3.55;;;12.60;99.90;;;;;;4937462;29;20394;-91
2022/01/02 10:40:29;;;;;;;5.57;2.70;;;12.60;99.90;;;;;;4938099;29;20028;-91
2022/01/02 10:42:56;;;;;;;7.60;2.72;;;12.70;99.90;;;;;;4937888;29;20035;-90
2022/01/02 10:45:37;;;;;;;9.85;3.20;;;12.70;99.90;;;;;;4938376;29;20505;-91
2022/01/02 10:48:06;;;;;;;8.77;3.30;;;12.90;99.90;;;;;;4937997;29;20035;-91
2022/01/02 10:50:32;;;;;;;8.38;3.20;;;12.90;99.90;;;;;;4937902;29;20463;-90
2022/01/02 10:53:13;;;;;;;8.43;3.05;;;12.90;99.90;;;;;;4937614;29;20240;-89
2022/01/02 10:55:39;;;;;;;11.98;4.05;;;12.90;99.90;;;;;;4922636;29;20081;-90
2022/01/02 10:58:08;;;;;;;10.55;4.03;;;13.00;99.90;;;;;;4937812;29;20406;-91
2022/01/02 11:00:33;;;;;;;6.70;3.13;;;13.00;99.90;;;;;;4937875;29;20494;-91
2022/01/02 11:03:00;;;;;;;9.20;3.90;;;13.10;99.90;;;;;;4937632;29;20034;-91
2022/01/02 11:05:28;;;;;;;12.00;4.82;;;13.30;99.90;;;;;;4937532;29;20027;-91
2022/01/02 11:07:59;;;;;;;8.23;3.40;;;13.30;99.90;;;;;;4953177;29;20166;-91
2022/01/02 11:10:31;;;;;;;7.45;3.22;;;13.40;99.90;;;;;;4937670;29;20130;-91
2022/01/02 11:12:57;;;;;;;7.57;3.55;;;13.30;99.90;;;;;;4937170;29;20036;-91
2022/01/02 11:15:25;;;;;;;7.18;3.17;;;13.30;99.90;;;;;;4937291;29;20095;-90
2022/01/02 11:17:52;;;;;;;7.88;3.20;;;13.40;99.90;;;;;;4937351;29;20085;-91
2022/01/02 11:20:27;;;;;;;7.57;3.10;;;13.40;99.90;;;;;;4937290;29;20031;-91
2022/01/02 11:23:03;;;;;;;7.43;2.92;;;13.40;99.90;;;;;;4937312;29;20031;-90
2022/01/02 11:25:42;;;;;;;7.18;3.28;;;13.50;99.90;;;;;;4954399;29;20027;-90
2022/01/02 11:28:26;;;;;;;6.60;3.23;;;13.50;99.90;;;;;;4937174;29;20086;-91
2022/01/02 11:30:53;;;;;;;8.45;3.35;;;13.50;99.90;;;;;;4936777;28;20034;-91
2022/01/02 11:33:32;;;;;;;12.63;4.13;;;13.50;99.90;;;;;;4921205;29;20118;-91
2022/01/02 11:36:00;;;;;;;10.55;3.80;;;13.50;99.90;;;;;;4936927;29;20034;-90
2022/01/02 11:38:42;;;;;;;10.20;3.30;;;13.60;99.90;;;;;;4936847;29;20490;-90
2022/01/02 11:41:07;;;;;;;9.63;3.63;;;13.50;99.90;;;;;;4936800;28;20031;-91
2022/01/02 11:43:38;;;;;;;9.27;4.05;;;13.60;99.90;;;;;;4936801;29;20066;-91
2022/01/02 11:46:24;;;;;;;10.68;3.63;;;13.50;99.90;;;;;;4937665;29;20039;-91
2022/01/02 11:49:05;;;;;;;10.35;3.35;;;13.50;99.90;;;;;;4961802;29;20031;-90
2022/01/02 11:52:00;;;;;;;8.02;3.15;;;13.50;99.90;;;;;;4963051;28;20043;-91
2022/01/02 11:56:56;;;;;;;9.95;3.20;;;13.50;99.90;;;;;;4968241;28;20107;-90
2022/01/02 11:59:45;;;;;;;10.13;3.35;;;13.50;99.90;;;;;;4955418;29;20103;-91
2022/01/02 12:02:21;;;;;;;9.35;2.97;;;13.50;99.90;;;;;;4956722;29;20031;-91
2022/01/02 12:07:40;;;;;;;8.63;2.67;;;13.60;99.90;;;;;;4982503;28;20094;-90
2022/01/02 12:10:35;;;;;;;7.18;3.10;;;13.50;99.90;;;;;;4960719;28;20054;-89
2022/01/02 12:13:06;;;;;;;6.60;2.97;;;13.50;99.90;;;;;;4943031;28;20114;-88
2022/01/02 12:15:31;;;;;;;5.70;2.58;;;13.40;99.90;;;;;;4959899;28;20039;-91
2022/01/02 12:18:07;;;;;;;7.32;2.67;;;13.40;99.90;;;;;;4959694;29;20043;-90
2022/01/02 12:20:54;;;;;;;10.52;2.92;;;13.30;99.90;;;;;;4975699;28;20023;-90
2022/01/02 12:23:42;;;;;;;8.43;3.28;;;13.30;99.90;;;;;;4959234;29;20039;-90
2022/01/02 12:26:41;;;;;;;9.05;2.80;;;13.30;99.90;;;;;;4959699;29;20027;-89
2022/01/02 12:29:12;;;;;;;6.30;2.88;;;13.30;99.90;;;;;;4935027;29;20062;-90
2022/01/02 12:31:43;;;;;;;10.07;3.33;;;13.40;99.90;;;;;;4942541;29;20043;-90
2022/01/02 12:34:19;;;;;;;9.35;3.53;;;13.40;99.90;;;;;;4958812;28;20035;-90
2022/01/02 12:36:51;;;;;;;10.32;3.85;;;13.40;99.90;;;;;;4956929;28;20064;-90
2022/01/02 12:39:39;;;;;;;10.82;3.40;;;13.30;99.90;;;;;;4941224;29;20035;-90
2022/01/02 12:42:09;;;;;;;11.13;3.28;;;13.30;99.90;;;;;;4941198;29;20035;-90
2022/01/02 12:44:37;;;;;;;8.70;3.20;;;13.30;99.90;;;;;;4942722;29;20031;-90
2022/01/02 12:47:08;;;;;;;7.43;2.65;;;13.30;99.90;;;;;;4942042;29;20011;-89
2022/01/02 12:49:37;;;;;;;7.55;3.10;;;13.30;99.90;;;;;;4980021;28;20114;-89
2022/01/02 12:52:05;;;;;;;;;;;13.30;99.90;;;;;;4959306;29;20031;-90
2022/01/02 12:54:36;;;;;;;7.57;2.55;;;13.30;99.90;;;;;;4957677;29;19910;-90
2022/01/02 12:57:08;;;;;;;7.63;2.85;;;13.30;99.90;;;;;;4959681;29;20039;-90
2022/01/02 12:59:44;;;;;;;9.60;2.92;;;13.40;99.90;;;;;;4949260;28;20059;-91
2022/01/02 13:02:21;;;;;;;7.97;3.03;;;13.40;99.90;;;;;;4973054;28;20019;-91
2022/01/02 13:04:53;;;;;;;5.97;2.50;;;13.30;99.90;;;;;;4955950;29;20035;-91
2022/01/02 13:07:31;;;;;;;7.43;2.75;;;13.30;99.90;;;;;;4954741;29;20035;-91
2022/01/02 13:09:59;;;;;;;10.38;3.20;;;13.30;99.90;;;;;;4951471;29;20040;-92
2022/01/02 13:12:29;;;;;;;9.63;3.17;;;13.40;99.90;;;;;;4949492;29;20031;-91
2022/01/02 13:15:09;;;;;;;11.80;3.10;;;13.30;99.90;;;;;;4953984;29;20107;-91
2022/01/02 13:17:48;;;;;;;8.23;2.92;;;13.40;99.90;;;;;;4951973;29;20035;-91
2022/01/02 13:20:18;;;;;;;7.07;3.10;;;13.30;99.90;;;;;;4954484;29;20035;-91